Meath Environmental Platform

Observations

Time Sensor AQI SAQ Temp °C Hum % Pres Pa CO μg/m³ H₂S μg/m³ NO μg/m³ NO₂ μg/m³ O₃ μg/m³ SO₂ μg/m³ CO₂e PPM VOC PPM PM1 μg/m³ PM2.5 μg/m³ PM4 μg/m³ PM10 μg/m³ TPS µm
Wednesday 12 August 2026
15:08 Trim Market St 3 40.7 27 67,155 0 0 0 13.79 75.78 2.8 2.14 5.62 6.19
15:08 Trim Patrick St 3 37.8 33 69,756 0 0 0 9.67 79.02 21.7 3.71 9.89 10.88
15:07 Trim Market St 3 40.5 27 67,112 0 0 0 13.68 81.23 2.54 2.85 5.61 6.17
15:06 Trim Market St 3 40.3 28 67,114 0 0 0 13.73 86.24 2.06 3.56 6.68 7.35
15:06 Trim Patrick St 3 37.5 33 69,750 0 0 0 8.68 84.52 22.32 4.57 10.66 11.73
15:05 Trim Market St 3 40.1 28 67,120 0 0 0 13.64 81.48 2.86 0.71 4.48 4.93
15:04 Trim Market St 3 39.9 28 67,106 0 0 0 13.52 118.82 3.37 1.43 4.49 4.94
15:03 Trim Market St 3 39.7 28 67,061 0 0 0 13.17 65.8 2.36 1.43 4.5 4.95
15:02 Trim Market St 3 39.6 28 67,031 1.19 0 0 13.43 82.8 2.72 1.43 5.02 5.52
15:02 Trim Patrick St 3 37 33 69,701 0 0 0.03 12.32 91.69 21.56 6.29 13.1 14.41
15:01 Trim Market St 3 39.5 28 67,021 5.15 12.36 0 19.45 66.66 3.13 2.14 5.02 5.53
15:00 Trim Market St 3 39.3 28 67,013 0 0 0 13.41 76.29 1.89 2.85 6.11 6.65
15:00 Trim Patrick St 3 36.7 33 69,687 0 0 0.05 12.77 126.02 22.53 5.43 13.05 14.35
14:59 Trim Market St 2 39.2 28 67,009 0 0 0 13.79 96.98 1.73 2.14 5.56 6.12
14:59 Trim Patrick St 2 36.7 33 69,705 0 0 0.06 12.08 82.23 21.28 4.57 10.69 11.76
14:58 Trim Market St 2 39.1 28 67,003 0.06 0 0 13.39 55.39 1.86 1.43 5.03 5.53
14:58 Trim Patrick St 3 36.6 33 69,723 0 0 0.07 12.72 113.21 22.31 3.71 9.08 9.99
14:57 Trim Market St 2 39.1 28 66,967 0 0 0 13.59 72.61 1.12 0.71 3.94 4.33
14:57 Trim Patrick St 3 36.6 33 69,721 0 0 0.07 12.89 91.03 21.16 3.71 9.88 10.87
14:56 Trim Market St 2 39.1 28 66,945 0 0 0 13.34 85.04 2.56 1.43 5.57 6.13